sensor_id;sensor_type;location;lat;lon;timestamp;temperature;humidity
41630;DHT22;27322;49.488;8.480;2023-05-03T00:00:23;12.30;99.90
41630;DHT22;27322;49.488;8.480;2023-05-03T00:02:50;12.20;99.90
41630;DHT22;27322;49.488;8.480;2023-05-03T00:05:18;12.20;99.90
41630;DHT22;27322;49.488;8.480;2023-05-03T00:07:44;12.20;99.90
41630;DHT22;27322;49.488;8.480;2023-05-03T00:10:11;12.20;99.90
41630;DHT22;27322;49.488;8.480;2023-05-03T00:12:43;12.10;99.90
41630;DHT22;27322;49.488;8.480;2023-05-03T00:15:09;12.10;99.90
41630;DHT22;27322;49.488;8.480;2023-05-03T00:17:38;12.10;99.90
41630;DHT22;27322;49.488;8.480;2023-05-03T00:20:04;12.00;99.90
41630;DHT22;27322;49.488;8.480;2023-05-03T00:22:30;12.00;99.90
41630;DHT22;27322;49.488;8.480;2023-05-03T00:24:58;12.00;99.90
41630;DHT22;27322;49.488;8.480;2023-05-03T00:27:23;12.00;99.90
41630;DHT22;27322;49.488;8.480;2023-05-03T00:29:50;12.00;99.90
41630;DHT22;27322;49.488;8.480;2023-05-03T00:32:19;11.90;99.90
41630;DHT22;27322;49.488;8.480;2023-05-03T00:34:45;11.90;99.90
41630;DHT22;27322;49.488;8.480;2023-05-03T00:37:11;11.90;99.90
41630;DHT22;27322;49.488;8.480;2023-05-03T00:39:36;11.90;99.90
41630;DHT22;27322;49.488;8.480;2023-05-03T00:42:02;11.90;99.90
41630;DHT22;27322;49.488;8.480;2023-05-03T00:44:31;11.80;99.90
41630;DHT22;27322;49.488;8.480;2023-05-03T00:46:56;11.80;99.90
41630;DHT22;27322;49.488;8.480;2023-05-03T00:49:24;11.80;99.90
41630;DHT22;27322;49.488;8.480;2023-05-03T00:51:52;11.70;99.90
41630;DHT22;27322;49.488;8.480;2023-05-03T00:54:17;11.70;99.90
41630;DHT22;27322;49.488;8.480;2023-05-03T00:56:44;11.70;99.90
41630;DHT22;27322;49.488;8.480;2023-05-03T00:59:10;11.60;99.90
41630;DHT22;27322;49.488;8.480;2023-05-03T01:01:36;11.60;99.90
41630;DHT22;27322;49.488;8.480;2023-05-03T01:04:03;11.60;99.90
41630;DHT22;27322;49.488;8.480;2023-05-03T01:14:31;11.50;99.90
41630;DHT22;27322;49.488;8.480;2023-05-03T01:17:10;11.40;99.90
41630;DHT22;27322;49.488;8.480;2023-05-03T01:19:50;11.40;99.90
41630;DHT22;27322;49.488;8.480;2023-05-03T01:25:11;11.40;99.90
41630;DHT22;27322;49.488;8.480;2023-05-03T01:27:38;11.30;99.90
41630;DHT22;27322;49.488;8.480;2023-05-03T01:30:05;11.30;99.90
41630;DHT22;27322;49.488;8.480;2023-05-03T01:37:48;11.20;99.90
41630;DHT22;27322;49.488;8.480;2023-05-03T01:40:16;11.20;99.90
41630;DHT22;27322;49.488;8.480;2023-05-03T01:42:44;11.20;99.90
41630;DHT22;27322;49.488;8.480;2023-05-03T01:45:10;11.20;99.90
41630;DHT22;27322;49.488;8.480;2023-05-03T01:47:36;11.10;99.90
41630;DHT22;27322;49.488;8.480;2023-05-03T01:50:02;11.10;99.90
41630;DHT22;27322;49.488;8.480;2023-05-03T01:52:27;11.10;99.90
41630;DHT22;27322;49.488;8.480;2023-05-03T01:54:53;11.10;99.90
41630;DHT22;27322;49.488;8.480;2023-05-03T01:57:18;11.00;99.90
41630;DHT22;27322;49.488;8.480;2023-05-03T01:59:44;11.00;99.90
41630;DHT22;27322;49.488;8.480;2023-05-03T02:02:10;11.00;99.90
41630;DHT22;27322;49.488;8.480;2023-05-03T02:04:35;11.00;99.90
41630;DHT22;27322;49.488;8.480;2023-05-03T02:07:01;11.00;99.90
41630;DHT22;27322;49.488;8.480;2023-05-03T02:09:26;11.00;99.90
41630;DHT22;27322;49.488;8.480;2023-05-03T02:11:52;10.90;99.90
41630;DHT22;27322;49.488;8.480;2023-05-03T02:14:17;10.90;99.90
41630;DHT22;27322;49.488;8.480;2023-05-03T02:16:43;10.90;99.90
41630;DHT22;27322;49.488;8.480;2023-05-03T02:19:11;10.90;99.90
41630;DHT22;27322;49.488;8.480;2023-05-03T02:21:37;10.90;99.90
41630;DHT22;27322;49.488;8.480;2023-05-03T02:24:02;10.90;99.90
41630;DHT22;27322;49.488;8.480;2023-05-03T02:26:28;10.90;99.90
41630;DHT22;27322;49.488;8.480;2023-05-03T02:28:54;10.80;99.90
41630;DHT22;27322;49.488;8.480;2023-05-03T02:31:21;10.80;99.90
41630;DHT22;27322;49.488;8.480;2023-05-03T02:33:46;10.80;99.90
41630;DHT22;27322;49.488;8.480;2023-05-03T02:36:12;10.80;99.90
41630;DHT22;27322;49.488;8.480;2023-05-03T02:38:38;10.80;99.90
41630;DHT22;27322;49.488;8.480;2023-05-03T02:41:03;10.80;99.90
41630;DHT22;27322;49.488;8.480;2023-05-03T02:43:29;10.80;99.90
41630;DHT22;27322;49.488;8.480;2023-05-03T02:45:54;10.80;99.90
41630;DHT22;27322;49.488;8.480;2023-05-03T02:48:20;10.70;99.90
41630;DHT22;27322;49.488;8.480;2023-05-03T02:50:46;10.70;99.90
41630;DHT22;27322;49.488;8.480;2023-05-03T02:53:11;10.70;99.90
41630;DHT22;27322;49.488;8.480;2023-05-03T02:55:37;10.70;99.90
41630;DHT22;27322;49.488;8.480;2023-05-03T02:58:02;10.60;99.90
41630;DHT22;27322;49.488;8.480;2023-05-03T03:00:28;10.60;99.90
41630;DHT22;27322;49.488;8.480;2023-05-03T03:02:53;10.60;99.90
41630;DHT22;27322;49.488;8.480;2023-05-03T03:05:19;10.60;99.90
41630;DHT22;27322;49.488;8.480;2023-05-03T03:07:46;10.60;99.90
41630;DHT22;27322;49.488;8.480;2023-05-03T03:10:11;10.60;99.90
41630;DHT22;27322;49.488;8.480;2023-05-03T03:12:38;10.50;99.90
41630;DHT22;27322;49.488;8.480;2023-05-03T03:15:04;10.50;99.90
41630;DHT22;27322;49.488;8.480;2023-05-03T03:17:30;10.50;99.90
41630;DHT22;27322;49.488;8.480;2023-05-03T03:19:56;10.50;99.90
41630;DHT22;27322;49.488;8.480;2023-05-03T03:22:23;10.50;99.90
41630;DHT22;27322;49.488;8.480;2023-05-03T03:24:50;10.50;99.90
41630;DHT22;27322;49.488;8.480;2023-05-03T03:27:15;10.40;99.90
41630;DHT22;27322;49.488;8.480;2023-05-03T03:29:41;10.40;99.90
41630;DHT22;27322;49.488;8.480;2023-05-03T03:32:06;10.40;99.90
41630;DHT22;27322;49.488;8.480;2023-05-03T03:34:32;10.40;99.90
41630;DHT22;27322;49.488;8.480;2023-05-03T03:36:57;10.40;99.90
41630;DHT22;27322;49.488;8.480;2023-05-03T03:39:23;10.40;99.90
41630;DHT22;27322;49.488;8.480;2023-05-03T03:41:48;10.40;99.90
41630;DHT22;27322;49.488;8.480;2023-05-03T03:44:14;10.40;99.90
41630;DHT22;27322;49.488;8.480;2023-05-03T03:46:40;10.40;99.90
41630;DHT22;27322;49.488;8.480;2023-05-03T03:49:05;10.30;99.90
41630;DHT22;27322;49.488;8.480;2023-05-03T03:51:32;10.30;99.90
41630;DHT22;27322;49.488;8.480;2023-05-03T03:53:58;10.30;99.90
41630;DHT22;27322;49.488;8.480;2023-05-03T03:56:23;10.30;99.90
41630;DHT22;27322;49.488;8.480;2023-05-03T03:58:49;10.30;99.90
41630;DHT22;27322;49.488;8.480;2023-05-03T04:01:15;10.30;99.90
41630;DHT22;27322;49.488;8.480;2023-05-03T04:03:41;10.30;99.90
41630;DHT22;27322;49.488;8.480;2023-05-03T04:06:09;10.30;99.90
41630;DHT22;27322;49.488;8.480;2023-05-03T04:08:34;10.20;99.90
41630;DHT22;27322;49.488;8.480;2023-05-03T04:11:01;10.20;99.90
41630;DHT22;27322;49.488;8.480;2023-05-03T04:13:26;10.20;99.90
41630;DHT22;27322;49.488;8.480;2023-05-03T04:15:55;10.20;99.90
41630;DHT22;27322;49.488;8.480;2023-05-03T04:18:21;10.20;99.90
41630;DHT22;27322;49.488;8.480;2023-05-03T04:20:47;10.20;99.90
41630;DHT22;27322;49.488;8.480;2023-05-03T04:23:13;10.20;99.90
41630;DHT22;27322;49.488;8.480;2023-05-03T04:25:39;10.10;99.90
41630;DHT22;27322;49.488;8.480;2023-05-03T04:28:11;10.10;99.90
41630;DHT22;27322;49.488;8.480;2023-05-03T04:30:38;10.20;99.90
41630;DHT22;27322;49.488;8.480;2023-05-03T04:33:03;10.10;99.90
41630;DHT22;27322;49.488;8.480;2023-05-03T04:35:29;10.10;99.90
41630;DHT22;27322;49.488;8.480;2023-05-03T04:37:54;10.10;99.90
41630;DHT22;27322;49.488;8.480;2023-05-03T04:40:20;10.10;99.90
41630;DHT22;27322;49.488;8.480;2023-05-03T04:42:46;10.10;99.90
41630;DHT22;27322;49.488;8.480;2023-05-03T04:45:11;10.10;99.90
41630;DHT22;27322;49.488;8.480;2023-05-03T04:47:38;10.10;99.90
41630;DHT22;27322;49.488;8.480;2023-05-03T04:50:05;10.10;99.90
41630;DHT22;27322;49.488;8.480;2023-05-03T04:52:32;10.10;99.90
41630;DHT22;27322;49.488;8.480;2023-05-03T04:54:57;10.20;99.90
41630;DHT22;27322;49.488;8.480;2023-05-03T04:57:23;10.10;99.90
41630;DHT22;27322;49.488;8.480;2023-05-03T04:59:49;10.20;99.90
41630;DHT22;27322;49.488;8.480;2023-05-03T05:02:15;10.20;99.90
41630;DHT22;27322;49.488;8.480;2023-05-03T05:04:40;10.20;99.90
41630;DHT22;27322;49.488;8.480;2023-05-03T05:07:06;10.20;99.90
41630;DHT22;27322;49.488;8.480;2023-05-03T05:09:32;10.20;99.90
41630;DHT22;27322;49.488;8.480;2023-05-03T05:11:58;10.30;99.90
41630;DHT22;27322;49.488;8.480;2023-05-03T05:14:25;10.30;99.90
41630;DHT22;27322;49.488;8.480;2023-05-03T05:16:52;10.30;99.90
41630;DHT22;27322;49.488;8.480;2023-05-03T05:19:18;10.30;99.90
41630;DHT22;27322;49.488;8.480;2023-05-03T05:21:44;10.40;99.90
41630;DHT22;27322;49.488;8.480;2023-05-03T05:24:10;10.30;99.90
41630;DHT22;27322;49.488;8.480;2023-05-03T05:26:35;10.40;99.90
41630;DHT22;27322;49.488;8.480;2023-05-03T05:29:01;10.30;99.90
41630;DHT22;27322;49.488;8.480;2023-05-03T05:31:26;10.40;99.90
41630;DHT22;27322;49.488;8.480;2023-05-03T05:33:52;10.40;99.90
41630;DHT22;27322;49.488;8.480;2023-05-03T05:36:17;10.40;99.90
41630;DHT22;27322;49.488;8.480;2023-05-03T05:38:43;10.40;99.90
41630;DHT22;27322;49.488;8.480;2023-05-03T05:41:09;10.40;99.90
41630;DHT22;27322;49.488;8.480;2023-05-03T05:43:34;10.40;99.90
41630;DHT22;27322;49.488;8.480;2023-05-03T05:46:00;10.50;99.90
41630;DHT22;27322;49.488;8.480;2023-05-03T05:48:25;10.50;99.90
41630;DHT22;27322;49.488;8.480;2023-05-03T05:50:51;10.40;99.90
41630;DHT22;27322;49.488;8.480;2023-05-03T05:53:16;10.50;99.90
41630;DHT22;27322;49.488;8.480;2023-05-03T05:55:42;10.40;99.90
41630;DHT22;27322;49.488;8.480;2023-05-03T05:58:08;10.50;99.90
41630;DHT22;27322;49.488;8.480;2023-05-03T06:00:34;10.50;99.90
41630;DHT22;27322;49.488;8.480;2023-05-03T06:03:00;10.60;99.90
41630;DHT22;27322;49.488;8.480;2023-05-03T06:05:26;10.60;99.90
41630;DHT22;27322;49.488;8.480;2023-05-03T06:07:51;10.60;99.90
41630;DHT22;27322;49.488;8.480;2023-05-03T06:10:17;10.70;99.90
41630;DHT22;27322;49.488;8.480;2023-05-03T06:12:42;10.70;99.90
41630;DHT22;27322;49.488;8.480;2023-05-03T06:15:08;10.70;99.90
41630;DHT22;27322;49.488;8.480;2023-05-03T06:17:34;10.80;99.90
41630;DHT22;27322;49.488;8.480;2023-05-03T06:20:00;10.80;99.90
41630;DHT22;27322;49.488;8.480;2023-05-03T06:22:26;10.80;99.90
41630;DHT22;27322;49.488;8.480;2023-05-03T06:24:51;10.90;99.90
41630;DHT22;27322;49.488;8.480;2023-05-03T06:27:17;10.90;99.90
41630;DHT22;27322;49.488;8.480;2023-05-03T06:29:43;10.90;99.90
41630;DHT22;27322;49.488;8.480;2023-05-03T06:32:09;10.90;99.90
41630;DHT22;27322;49.488;8.480;2023-05-03T06:34:35;11.00;99.90
41630;DHT22;27322;49.488;8.480;2023-05-03T06:37:00;11.00;99.90
41630;DHT22;27322;49.488;8.480;2023-05-03T06:39:26;11.00;99.90
41630;DHT22;27322;49.488;8.480;2023-05-03T06:41:52;11.10;99.90
41630;DHT22;27322;49.488;8.480;2023-05-03T06:44:18;11.10;99.90
41630;DHT22;27322;49.488;8.480;2023-05-03T06:46:44;11.10;99.90
41630;DHT22;27322;49.488;8.480;2023-05-03T06:49:09;11.20;99.90
41630;DHT22;27322;49.488;8.480;2023-05-03T06:51:35;11.20;99.90
41630;DHT22;27322;49.488;8.480;2023-05-03T06:54:01;11.30;99.90
41630;DHT22;27322;49.488;8.480;2023-05-03T06:56:35;11.30;99.90
41630;DHT22;27322;49.488;8.480;2023-05-03T06:59:01;11.40;99.90
41630;DHT22;27322;49.488;8.480;2023-05-03T07:01:28;11.40;99.90
41630;DHT22;27322;49.488;8.480;2023-05-03T07:03:53;11.40;99.90
41630;DHT22;27322;49.488;8.480;2023-05-03T07:06:19;11.50;99.90
41630;DHT22;27322;49.488;8.480;2023-05-03T07:08:48;11.50;99.90
41630;DHT22;27322;49.488;8.480;2023-05-03T07:11:14;11.60;99.90
41630;DHT22;27322;49.488;8.480;2023-05-03T07:13:39;11.60;99.90
41630;DHT22;27322;49.488;8.480;2023-05-03T07:16:05;11.60;99.90
41630;DHT22;27322;49.488;8.480;2023-05-03T07:18:31;11.70;99.90
41630;DHT22;27322;49.488;8.480;2023-05-03T07:20:57;11.70;99.90
41630;DHT22;27322;49.488;8.480;2023-05-03T07:23:22;11.70;99.90
41630;DHT22;27322;49.488;8.480;2023-05-03T07:25:48;11.80;99.90
41630;DHT22;27322;49.488;8.480;2023-05-03T07:28:15;11.90;99.90
41630;DHT22;27322;49.488;8.480;2023-05-03T07:30:40;11.90;99.90
41630;DHT22;27322;49.488;8.480;2023-05-03T07:33:06;12.00;99.90
41630;DHT22;27322;49.488;8.480;2023-05-03T07:35:32;12.00;99.90
41630;DHT22;27322;49.488;8.480;2023-05-03T07:37:58;12.10;99.90
41630;DHT22;27322;49.488;8.480;2023-05-03T07:40:23;12.20;99.90
41630;DHT22;27322;49.488;8.480;2023-05-03T07:42:49;12.20;99.90
41630;DHT22;27322;49.488;8.480;2023-05-03T07:45:15;12.20;99.90
41630;DHT22;27322;49.488;8.480;2023-05-03T07:47:40;12.30;99.90
41630;DHT22;27322;49.488;8.480;2023-05-03T07:50:06;12.30;99.90
41630;DHT22;27322;49.488;8.480;2023-05-03T07:52:36;12.40;99.90
41630;DHT22;27322;49.488;8.480;2023-05-03T07:55:02;12.40;99.90
41630;DHT22;27322;49.488;8.480;2023-05-03T07:57:28;12.50;99.90
41630;DHT22;27322;49.488;8.480;2023-05-03T07:59:54;12.50;99.90
41630;DHT22;27322;49.488;8.480;2023-05-03T08:02:20;12.60;99.90
41630;DHT22;27322;49.488;8.480;2023-05-03T08:04:46;12.60;99.90
41630;DHT22;27322;49.488;8.480;2023-05-03T08:07:11;12.60;99.90
41630;DHT22;27322;49.488;8.480;2023-05-03T08:09:37;12.60;99.90
41630;DHT22;27322;49.488;8.480;2023-05-03T08:12:03;12.70;99.90
41630;DHT22;27322;49.488;8.480;2023-05-03T08:14:28;12.70;99.90
41630;DHT22;27322;49.488;8.480;2023-05-03T08:16:54;12.70;99.90
41630;DHT22;27322;49.488;8.480;2023-05-03T08:19:19;12.80;99.90
41630;DHT22;27322;49.488;8.480;2023-05-03T08:21:45;12.80;99.90
41630;DHT22;27322;49.488;8.480;2023-05-03T08:24:13;12.90;99.90
41630;DHT22;27322;49.488;8.480;2023-05-03T08:26:40;12.90;99.90
41630;DHT22;27322;49.488;8.480;2023-05-03T08:29:06;13.00;99.90
41630;DHT22;27322;49.488;8.480;2023-05-03T08:31:31;13.00;99.90
41630;DHT22;27322;49.488;8.480;2023-05-03T08:33:57;13.10;99.90
41630;DHT22;27322;49.488;8.480;2023-05-03T08:36:23;13.10;99.90
41630;DHT22;27322;49.488;8.480;2023-05-03T08:38:48;13.20;99.90
41630;DHT22;27322;49.488;8.480;2023-05-03T08:41:21;13.30;99.90
41630;DHT22;27322;49.488;8.480;2023-05-03T08:43:52;13.40;99.90
41630;DHT22;27322;49.488;8.480;2023-05-03T08:46:18;13.50;99.90
41630;DHT22;27322;49.488;8.480;2023-05-03T08:48:47;13.70;99.90
41630;DHT22;27322;49.488;8.480;2023-05-03T08:51:13;13.70;99.90
41630;DHT22;27322;49.488;8.480;2023-05-03T08:53:40;13.80;99.90
41630;DHT22;27322;49.488;8.480;2023-05-03T08:56:09;13.90;99.90
41630;DHT22;27322;49.488;8.480;2023-05-03T08:58:37;13.90;99.90
41630;DHT22;27322;49.488;8.480;2023-05-03T09:01:06;13.90;99.90
41630;DHT22;27322;49.488;8.480;2023-05-03T09:03:33;14.00;99.90
41630;DHT22;27322;49.488;8.480;2023-05-03T09:05:59;14.00;99.90
41630;DHT22;27322;49.488;8.480;2023-05-03T09:08:28;14.00;99.90
41630;DHT22;27322;49.488;8.480;2023-05-03T09:10:54;14.10;99.90
41630;DHT22;27322;49.488;8.480;2023-05-03T09:13:20;14.20;99.90
41630;DHT22;27322;49.488;8.480;2023-05-03T09:15:53;14.20;99.90
41630;DHT22;27322;49.488;8.480;2023-05-03T09:18:19;14.30;99.90
41630;DHT22;27322;49.488;8.480;2023-05-03T09:20:46;14.40;99.90
41630;DHT22;27322;49.488;8.480;2023-05-03T09:25:53;14.40;99.90
41630;DHT22;27322;49.488;8.480;2023-05-03T09:28:19;14.40;99.90
41630;DHT22;27322;49.488;8.480;2023-05-03T09:30:46;14.40;99.90
41630;DHT22;27322;49.488;8.480;2023-05-03T09:33:13;14.40;99.90
41630;DHT22;27322;49.488;8.480;2023-05-03T09:35:56;14.30;99.90
41630;DHT22;27322;49.488;8.480;2023-05-03T09:38:30;14.30;99.90
41630;DHT22;27322;49.488;8.480;2023-05-03T09:40:56;14.40;99.90
41630;DHT22;27322;49.488;8.480;2023-05-03T09:43:22;14.50;99.90
41630;DHT22;27322;49.488;8.480;2023-05-03T09:45:48;14.70;99.90
41630;DHT22;27322;49.488;8.480;2023-05-03T09:48:15;15.00;99.90
41630;DHT22;27322;49.488;8.480;2023-05-03T09:50:42;15.30;99.90
41630;DHT22;27322;49.488;8.480;2023-05-03T09:53:07;15.60;99.90
41630;DHT22;27322;49.488;8.480;2023-05-03T09:55:37;15.90;99.90
41630;DHT22;27322;49.488;8.480;2023-05-03T09:58:04;16.00;99.90
41630;DHT22;27322;49.488;8.480;2023-05-03T10:00:40;16.10;99.90
41630;DHT22;27322;49.488;8.480;2023-05-03T10:03:10;16.10;99.90
41630;DHT22;27322;49.488;8.480;2023-05-03T10:05:48;16.10;99.90
41630;DHT22;27322;49.488;8.480;2023-05-03T10:08:33;16.10;99.90
41630;DHT22;27322;49.488;8.480;2023-05-03T10:11:03;16.00;99.90
41630;DHT22;27322;49.488;8.480;2023-05-03T10:13:29;16.00;99.90
41630;DHT22;27322;49.488;8.480;2023-05-03T10:16:02;16.00;99.90
41630;DHT22;27322;49.488;8.480;2023-05-03T10:18:31;15.90;99.90
41630;DHT22;27322;49.488;8.480;2023-05-03T10:21:10;15.90;99.90
41630;DHT22;27322;49.488;8.480;2023-05-03T10:26:45;16.00;99.90
41630;DHT22;27322;49.488;8.480;2023-05-03T10:32:00;16.30;99.90
41630;DHT22;27322;49.488;8.480;2023-05-03T10:34:34;16.60;99.90
41630;DHT22;27322;49.488;8.480;2023-05-03T10:37:01;16.90;99.90
41630;DHT22;27322;49.488;8.480;2023-05-03T10:39:28;17.30;99.90
41630;DHT22;27322;49.488;8.480;2023-05-03T10:42:01;17.90;98.70
41630;DHT22;27322;49.488;8.480;2023-05-03T10:47:23;19.00;94.30
41630;DHT22;27322;49.488;8.480;2023-05-03T10:55:24;18.40;95.10
41630;DHT22;27322;49.488;8.480;2023-05-03T10:57:53;18.10;95.60
41630;DHT22;27322;49.488;8.480;2023-05-03T11:03:24;17.80;95.80
41630;DHT22;27322;49.488;8.480;2023-05-03T11:05:53;17.60;95.90
41630;DHT22;27322;49.488;8.480;2023-05-03T11:08:20;17.50;96.60
41630;DHT22;27322;49.488;8.480;2023-05-03T11:10:48;17.30;96.40
41630;DHT22;27322;49.488;8.480;2023-05-03T11:13:14;17.10;96.70
41630;DHT22;27322;49.488;8.480;2023-05-03T11:15:40;16.90;97.50
41630;DHT22;27322;49.488;8.480;2023-05-03T11:18:07;16.80;98.40
41630;DHT22;27322;49.488;8.480;2023-05-03T11:20:34;16.60;98.30
41630;DHT22;27322;49.488;8.480;2023-05-03T11:23:00;16.60;98.70
41630;DHT22;27322;49.488;8.480;2023-05-03T11:25:27;16.50;99.40
41630;DHT22;27322;49.488;8.480;2023-05-03T11:27:53;16.40;99.70
41630;DHT22;27322;49.488;8.480;2023-05-03T11:30:18;16.40;99.90
41630;DHT22;27322;49.488;8.480;2023-05-03T11:32:44;16.30;99.90
41630;DHT22;27322;49.488;8.480;2023-05-03T11:35:12;16.30;99.90
41630;DHT22;27322;49.488;8.480;2023-05-03T11:37:38;16.30;99.90
41630;DHT22;27322;49.488;8.480;2023-05-03T11:40:06;16.30;99.90
41630;DHT22;27322;49.488;8.480;2023-05-03T11:42:33;16.30;99.90
41630;DHT22;27322;49.488;8.480;2023-05-03T11:44:59;16.30;99.90
41630;DHT22;27322;49.488;8.480;2023-05-03T11:47:26;16.30;99.90
41630;DHT22;27322;49.488;8.480;2023-05-03T11:49:52;16.30;99.90
41630;DHT22;27322;49.488;8.480;2023-05-03T11:52:23;16.30;99.90
41630;DHT22;27322;49.488;8.480;2023-05-03T11:54:49;16.30;99.90
41630;DHT22;27322;49.488;8.480;2023-05-03T11:57:15;16.30;99.90
41630;DHT22;27322;49.488;8.480;2023-05-03T11:59:41;16.40;99.90
41630;DHT22;27322;49.488;8.480;2023-05-03T12:02:11;16.40;99.90
41630;DHT22;27322;49.488;8.480;2023-05-03T12:04:38;16.30;99.90
41630;DHT22;27322;49.488;8.480;2023-05-03T12:07:05;16.40;99.90
41630;DHT22;27322;49.488;8.480;2023-05-03T12:09:32;16.40;99.90
41630;DHT22;27322;49.488;8.480;2023-05-03T12:11:58;16.40;99.90
41630;DHT22;27322;49.488;8.480;2023-05-03T12:14:24;16.50;99.90
41630;DHT22;27322;49.488;8.480;2023-05-03T12:16:50;16.40;99.90
41630;DHT22;27322;49.488;8.480;2023-05-03T12:19:29;16.50;99.90
41630;DHT22;27322;49.488;8.480;2023-05-03T12:21:55;16.40;99.90
41630;DHT22;27322;49.488;8.480;2023-05-03T12:24:21;16.50;99.90
41630;DHT22;27322;49.488;8.480;2023-05-03T12:26:51;16.50;99.90
41630;DHT22;27322;49.488;8.480;2023-05-03T12:29:16;16.50;99.90
41630;DHT22;27322;49.488;8.480;2023-05-03T12:31:43;16.50;99.90
41630;DHT22;27322;49.488;8.480;2023-05-03T12:34:08;16.50;99.90
41630;DHT22;27322;49.488;8.480;2023-05-03T12:36:34;16.60;99.90
41630;DHT22;27322;49.488;8.480;2023-05-03T12:39:00;16.60;99.90
41630;DHT22;27322;49.488;8.480;2023-05-03T12:41:27;16.60;99.90
41630;DHT22;27322;49.488;8.480;2023-05-03T12:43:56;16.60;99.90
41630;DHT22;27322;49.488;8.480;2023-05-03T12:46:23;16.60;99.90
41630;DHT22;27322;49.488;8.480;2023-05-03T12:48:49;16.60;99.90
41630;DHT22;27322;49.488;8.480;2023-05-03T12:51:15;16.70;99.90
41630;DHT22;27322;49.488;8.480;2023-05-03T12:53:41;16.70;99.90
41630;DHT22;27322;49.488;8.480;2023-05-03T12:56:06;16.70;99.90
41630;DHT22;27322;49.488;8.480;2023-05-03T12:58:32;16.70;99.90
41630;DHT22;27322;49.488;8.480;2023-05-03T13:00:58;16.70;99.60
41630;DHT22;27322;49.488;8.480;2023-05-03T13:03:24;16.80;99.90
41630;DHT22;27322;49.488;8.480;2023-05-03T13:05:50;16.80;99.60
41630;DHT22;27322;49.488;8.480;2023-05-03T13:08:16;16.80;99.90
41630;DHT22;27322;49.488;8.480;2023-05-03T13:10:41;16.80;99.90
41630;DHT22;27322;49.488;8.480;2023-05-03T13:13:08;16.90;99.90
41630;DHT22;27322;49.488;8.480;2023-05-03T13:15:34;16.90;99.90
41630;DHT22;27322;49.488;8.480;2023-05-03T13:18:00;16.90;99.90
41630;DHT22;27322;49.488;8.480;2023-05-03T13:20:29;16.90;99.90
41630;DHT22;27322;49.488;8.480;2023-05-03T13:22:56;17.00;99.90
41630;DHT22;27322;49.488;8.480;2023-05-03T13:25:21;17.00;99.80
41630;DHT22;27322;49.488;8.480;2023-05-03T13:27:47;17.00;99.30
41630;DHT22;27322;49.488;8.480;2023-05-03T13:30:15;17.00;98.80
41630;DHT22;27322;49.488;8.480;2023-05-03T13:32:40;17.10;98.20
41630;DHT22;27322;49.488;8.480;2023-05-03T13:35:07;17.10;98.70
41630;DHT22;27322;49.488;8.480;2023-05-03T13:37:34;17.10;99.20
41630;DHT22;27322;49.488;8.480;2023-05-03T13:40:00;17.00;99.00
41630;DHT22;27322;49.488;8.480;2023-05-03T13:42:26;17.10;99.20
41630;DHT22;27322;49.488;8.480;2023-05-03T13:44:52;17.10;99.50
41630;DHT22;27322;49.488;8.480;2023-05-03T13:47:18;17.10;99.40
41630;DHT22;27322;49.488;8.480;2023-05-03T13:49:43;17.10;98.80
41630;DHT22;27322;49.488;8.480;2023-05-03T13:52:10;17.10;98.60
41630;DHT22;27322;49.488;8.480;2023-05-03T13:54:35;17.10;98.20
41630;DHT22;27322;49.488;8.480;2023-05-03T13:57:01;17.20;98.40
41630;DHT22;27322;49.488;8.480;2023-05-03T13:59:27;17.20;98.30
41630;DHT22;27322;49.488;8.480;2023-05-03T14:01:52;17.20;98.10
41630;DHT22;27322;49.488;8.480;2023-05-03T14:04:18;17.20;97.70
41630;DHT22;27322;49.488;8.480;2023-05-03T14:06:44;17.30;98.40
41630;DHT22;27322;49.488;8.480;2023-05-03T14:09:09;17.50;98.20
41630;DHT22;27322;49.488;8.480;2023-05-03T14:11:37;17.80;97.70
41630;DHT22;27322;49.488;8.480;2023-05-03T14:14:03;18.00;96.20
41630;DHT22;27322;49.488;8.480;2023-05-03T14:16:28;18.10;95.50
41630;DHT22;27322;49.488;8.480;2023-05-03T14:18:54;18.10;95.70
41630;DHT22;27322;49.488;8.480;2023-05-03T14:21:20;18.10;95.30
41630;DHT22;27322;49.488;8.480;2023-05-03T14:23:46;18.00;96.10
41630;DHT22;27322;49.488;8.480;2023-05-03T14:26:18;17.90;94.60
41630;DHT22;27322;49.488;8.480;2023-05-03T14:28:44;17.80;95.60
41630;DHT22;27322;49.488;8.480;2023-05-03T14:31:10;17.80;96.20
41630;DHT22;27322;49.488;8.480;2023-05-03T14:33:37;17.70;95.10
41630;DHT22;27322;49.488;8.480;2023-05-03T14:36:05;17.70;94.70
41630;DHT22;27322;49.488;8.480;2023-05-03T14:38:32;17.70;95.20
41630;DHT22;27322;49.488;8.480;2023-05-03T14:40:58;17.70;95.70
41630;DHT22;27322;49.488;8.480;2023-05-03T14:43:24;17.60;96.80
41630;DHT22;27322;49.488;8.480;2023-05-03T14:45:49;17.60;96.00
41630;DHT22;27322;49.488;8.480;2023-05-03T14:48:15;17.60;96.40
41630;DHT22;27322;49.488;8.480;2023-05-03T14:50:46;17.60;96.50
41630;DHT22;27322;49.488;8.480;2023-05-03T14:53:12;17.60;95.80
41630;DHT22;27322;49.488;8.480;2023-05-03T14:55:37;17.60;95.40
41630;DHT22;27322;49.488;8.480;2023-05-03T14:58:03;17.60;95.30
41630;DHT22;27322;49.488;8.480;2023-05-03T15:00:29;17.60;95.80
41630;DHT22;27322;49.488;8.480;2023-05-03T15:02:54;17.60;96.30
41630;DHT22;27322;49.488;8.480;2023-05-03T15:05:20;17.60;96.50
41630;DHT22;27322;49.488;8.480;2023-05-03T15:07:46;17.60;97.20
41630;DHT22;27322;49.488;8.480;2023-05-03T15:10:11;17.60;95.50
41630;DHT22;27322;49.488;8.480;2023-05-03T15:12:37;17.60;96.20
41630;DHT22;27322;49.488;8.480;2023-05-03T15:15:04;17.60;96.70
41630;DHT22;27322;49.488;8.480;2023-05-03T15:17:29;17.60;95.50
41630;DHT22;27322;49.488;8.480;2023-05-03T15:19:56;17.60;95.20
41630;DHT22;27322;49.488;8.480;2023-05-03T15:22:21;17.70;95.20
41630;DHT22;27322;49.488;8.480;2023-05-03T15:24:47;17.70;95.40
41630;DHT22;27322;49.488;8.480;2023-05-03T15:27:12;17.70;94.80
41630;DHT22;27322;49.488;8.480;2023-05-03T15:29:39;17.70;94.60
41630;DHT22;27322;49.488;8.480;2023-05-03T15:32:04;17.70;94.40
41630;DHT22;27322;49.488;8.480;2023-05-03T15:34:30;17.70;94.00
41630;DHT22;27322;49.488;8.480;2023-05-03T15:36:57;17.70;93.40
41630;DHT22;27322;49.488;8.480;2023-05-03T15:39:23;17.70;93.30
41630;DHT22;27322;49.488;8.480;2023-05-03T15:41:48;17.70;93.10
41630;DHT22;27322;49.488;8.480;2023-05-03T15:44:14;17.70;93.40
41630;DHT22;27322;49.488;8.480;2023-05-03T15:46:40;17.70;93.80
41630;DHT22;27322;49.488;8.480;2023-05-03T15:49:06;17.60;93.70
41630;DHT22;27322;49.488;8.480;2023-05-03T15:51:32;17.70;93.40
41630;DHT22;27322;49.488;8.480;2023-05-03T15:53:58;17.70;93.00
41630;DHT22;27322;49.488;8.480;2023-05-03T15:56:23;17.70;93.40
41630;DHT22;27322;49.488;8.480;2023-05-03T15:58:50;17.70;92.20
41630;DHT22;27322;49.488;8.480;2023-05-03T16:01:15;17.70;91.20